createdAt,value
2019-03-08T00:00:34.182Z,99.90
2019-03-08T00:03:03.091Z,99.90
2019-03-08T00:05:31.920Z,99.90
2019-03-08T00:08:00.741Z,99.90
2019-03-08T00:10:29.607Z,99.90
2019-03-08T00:12:58.417Z,99.90
2019-03-08T00:15:27.241Z,99.90
2019-03-08T00:17:56.199Z,99.90
2019-03-08T00:20:25.048Z,99.90
2019-03-08T00:22:53.870Z,99.90
2019-03-08T00:25:22.683Z,99.90
2019-03-08T00:27:51.420Z,99.90
2019-03-08T00:30:20.245Z,99.90
2019-03-08T00:32:49.075Z,99.90
2019-03-08T00:35:17.933Z,99.90
2019-03-08T00:37:46.792Z,99.90
2019-03-08T00:40:15.685Z,99.90
2019-03-08T00:42:44.493Z,99.90
2019-03-08T00:45:14.955Z,99.90
2019-03-08T00:47:43.789Z,99.90
2019-03-08T00:50:13.036Z,99.90
2019-03-08T00:52:41.867Z,99.90
2019-03-08T00:55:14.403Z,99.90
2019-03-08T00:57:43.239Z,99.90
2019-03-08T01:00:17.695Z,99.90
2019-03-08T01:02:46.533Z,99.90
2019-03-08T01:05:16.887Z,99.90
2019-03-08T01:07:45.991Z,99.90
2019-03-08T01:10:21.093Z,99.90
2019-03-08T01:12:49.945Z,99.90
2019-03-08T01:15:18.908Z,99.90
2019-03-08T01:17:47.778Z,99.90
2019-03-08T01:20:18.015Z,99.90
2019-03-08T01:22:47.012Z,99.90
2019-03-08T01:25:16.295Z,99.90
2019-03-08T01:27:59.653Z,99.90
2019-03-08T01:30:32.250Z,99.90
2019-03-08T01:33:01.069Z,99.90
2019-03-08T01:35:29.891Z,99.90
2019-03-08T01:37:58.740Z,99.90
2019-03-08T01:40:27.708Z,99.90
2019-03-08T01:42:56.543Z,99.90
2019-03-08T01:45:25.350Z,99.90
2019-03-08T01:47:54.192Z,99.90
2019-03-08T01:50:23.084Z,99.90
2019-03-08T01:52:51.918Z,99.90
2019-03-08T01:55:20.867Z,99.90
2019-03-08T01:57:49.715Z,99.90
2019-03-08T02:00:20.727Z,99.90
2019-03-08T02:02:49.645Z,99.90
2019-03-08T02:05:18.864Z,99.90
2019-03-08T02:07:47.618Z,99.90
2019-03-08T02:10:16.970Z,99.90
2019-03-08T02:12:45.775Z,99.90
2019-03-08T02:15:16.862Z,99.90
2019-03-08T02:17:45.715Z,99.90
2019-03-08T02:20:19.668Z,99.90
2019-03-08T02:22:48.556Z,99.90
2019-03-08T02:25:17.397Z,99.90
2019-03-08T02:27:46.220Z,99.90
2019-03-08T02:30:16.830Z,99.90
2019-03-08T02:32:45.886Z,99.90
2019-03-08T02:35:17.933Z,99.90
2019-03-08T02:37:46.818Z,99.90
2019-03-08T02:40:34.973Z,99.90
2019-03-08T02:43:05.843Z,99.90
2019-03-08T02:45:34.667Z,99.90
2019-03-08T02:48:03.531Z,99.90
2019-03-08T02:50:32.464Z,99.90
2019-03-08T02:53:01.288Z,99.90
2019-03-08T02:55:30.077Z,99.90
2019-03-08T02:57:58.912Z,99.90
2019-03-08T03:00:30.862Z,99.90
2019-03-08T03:02:59.636Z,99.90
2019-03-08T03:05:31.298Z,99.90
2019-03-08T03:08:00.160Z,99.90
2019-03-08T03:10:29.272Z,99.90
2019-03-08T03:12:58.096Z,99.90
2019-03-08T03:15:26.957Z,99.90
2019-03-08T03:17:55.752Z,99.90
2019-03-08T03:20:24.524Z,99.90
2019-03-08T03:22:53.544Z,99.90
2019-03-08T03:25:22.314Z,99.90
2019-03-08T03:27:51.204Z,99.90
2019-03-08T03:30:20.930Z,99.90
2019-03-08T03:32:49.737Z,99.90
2019-03-08T03:35:18.569Z,99.90
2019-03-08T03:37:47.719Z,99.90
2019-03-08T03:40:17.580Z,99.90
2019-03-08T03:42:46.537Z,99.90
2019-03-08T03:45:18.035Z,99.90
2019-03-08T03:47:46.839Z,99.90
2019-03-08T03:50:16.000Z,99.90
2019-03-08T03:52:44.826Z,99.90
2019-03-08T03:55:17.501Z,99.90
2019-03-08T03:57:46.309Z,99.90
2019-03-08T04:00:22.877Z,99.90
2019-03-08T04:02:51.757Z,99.90
2019-03-08T04:05:20.560Z,99.90
2019-03-08T04:07:49.396Z,99.90
2019-03-08T04:10:18.410Z,99.90
2019-03-08T04:12:47.234Z,99.90
2019-03-08T04:15:18.278Z,99.90
2019-03-08T04:17:47.394Z,99.90
2019-03-08T04:20:17.385Z,99.90
2019-03-08T04:22:46.230Z,99.90
2019-03-08T04:25:15.332Z,99.90
2019-03-08T04:27:44.214Z,99.90
2019-03-08T04:30:17.815Z,99.90
2019-03-08T04:32:46.656Z,99.90
2019-03-08T04:35:15.548Z,99.90
2019-03-08T04:37:44.468Z,99.90
2019-03-08T04:40:14.398Z,99.90
2019-03-08T04:42:43.272Z,99.90
2019-03-08T04:45:13.408Z,99.90
2019-03-08T04:47:42.265Z,99.90
2019-03-08T04:50:13.133Z,99.90
2019-03-08T04:52:41.885Z,99.90
2019-03-08T04:55:16.910Z,99.90
2019-03-08T04:57:46.666Z,99.90
2019-03-08T05:00:16.838Z,99.90
2019-03-08T05:02:45.673Z,99.90
2019-03-08T05:05:14.429Z,99.90
2019-03-08T05:07:43.258Z,99.90
2019-03-08T05:10:14.623Z,99.90
2019-03-08T05:12:43.574Z,99.90
2019-03-08T05:15:13.108Z,99.90
2019-03-08T05:17:41.910Z,99.90
2019-03-08T05:20:11.167Z,99.90
2019-03-08T05:22:39.953Z,99.90
2019-03-08T05:25:15.910Z,99.90
2019-03-08T05:27:44.699Z,99.90
2019-03-08T05:30:17.258Z,99.90
2019-03-08T05:32:46.090Z,99.90
2019-03-08T05:35:15.500Z,99.90
2019-03-08T05:37:44.372Z,99.90
2019-03-08T05:40:14.925Z,99.90
2019-03-08T05:42:43.957Z,99.90
2019-03-08T05:45:14.062Z,99.90
2019-03-08T05:47:42.966Z,99.90
2019-03-08T05:50:12.411Z,99.90
2019-03-08T05:52:41.555Z,99.90
2019-03-08T05:55:11.194Z,99.90
2019-03-08T05:57:40.108Z,99.90
2019-03-08T06:00:15.914Z,99.90
2019-03-08T06:02:44.830Z,99.90
2019-03-08T06:05:13.664Z,99.90
2019-03-08T06:07:42.485Z,99.90
2019-03-08T06:10:33.470Z,99.90
2019-03-08T06:13:06.441Z,99.90
2019-03-08T06:15:35.282Z,99.90
2019-03-08T06:18:04.286Z,99.90
2019-03-08T06:20:33.044Z,99.90
2019-03-08T06:23:01.900Z,99.90
2019-03-08T06:25:30.722Z,99.90
2019-03-08T06:27:59.523Z,99.90
2019-03-08T06:30:28.553Z,99.90
2019-03-08T06:32:57.398Z,99.90
2019-03-08T06:35:26.241Z,99.90
2019-03-08T06:37:55.086Z,99.90
2019-03-08T06:40:23.915Z,99.90
2019-03-08T06:42:52.639Z,99.90
2019-03-08T06:45:21.403Z,99.90
2019-03-08T06:47:50.160Z,99.90
2019-03-08T06:50:18.953Z,99.90
2019-03-08T06:52:47.774Z,99.90
2019-03-08T06:55:17.611Z,99.90
2019-03-08T06:57:46.461Z,99.90
2019-03-08T07:00:21.088Z,99.90
2019-03-08T07:02:49.879Z,99.90
2019-03-08T07:05:18.753Z,99.90
2019-03-08T07:07:47.592Z,99.90
2019-03-08T07:10:16.421Z,99.90
2019-03-08T07:12:45.481Z,99.90
2019-03-08T07:15:14.466Z,99.90
2019-03-08T07:17:43.240Z,99.90
2019-03-08T07:20:16.380Z,99.90
2019-03-08T07:22:46.811Z,99.90
2019-03-08T07:25:20.044Z,99.90
2019-03-08T07:27:50.519Z,99.90
2019-03-08T07:30:29.912Z,99.90
2019-03-08T07:33:03.293Z,99.90
2019-03-08T07:35:36.466Z,99.90
2019-03-08T07:38:06.946Z,99.90
2019-03-08T07:40:37.465Z,99.90
2019-03-08T07:43:13.930Z,99.90
2019-03-08T07:45:50.377Z,99.90
2019-03-08T07:48:20.820Z,99.90
2019-03-08T07:50:54.006Z,99.90
2019-03-08T07:53:27.533Z,99.90
2019-03-08T07:56:00.653Z,99.90
2019-03-08T07:58:31.148Z,99.90
2019-03-08T08:01:08.393Z,99.90
2019-03-08T08:03:45.089Z,99.90
2019-03-08T08:06:21.294Z,99.90
2019-03-08T08:09:00.907Z,99.90
2019-03-08T08:11:46.864Z,99.90
2019-03-08T08:14:20.030Z,99.90
2019-03-08T08:17:01.930Z,99.90
2019-03-08T08:19:48.421Z,99.90
2019-03-08T08:22:18.856Z,99.90
2019-03-08T08:24:49.342Z,99.90
2019-03-08T08:27:31.482Z,99.90
2019-03-08T08:30:01.948Z,99.90
2019-03-08T08:32:50.289Z,99.90
2019-03-08T08:35:26.313Z,99.90
2019-03-08T08:37:59.731Z,99.90
2019-03-08T08:40:46.278Z,99.90
2019-03-08T08:43:25.655Z,99.90
2019-03-08T08:46:17.969Z,99.90
2019-03-08T08:48:48.403Z,99.90
2019-03-08T08:51:21.683Z,99.90
2019-03-08T08:53:58.160Z,99.90
2019-03-08T08:56:28.673Z,99.90
2019-03-08T08:59:01.996Z,99.90
2019-03-08T09:01:38.492Z,99.90
2019-03-08T09:04:24.982Z,99.90
2019-03-08T09:06:58.319Z,99.90
2019-03-08T09:09:28.802Z,99.90
2019-03-08T09:11:59.482Z,99.90
2019-03-08T09:14:29.861Z,99.90
2019-03-08T09:17:00.553Z,99.90
2019-03-08T09:19:46.080Z,99.90
2019-03-08T09:22:19.473Z,99.90
2019-03-08T09:24:52.904Z,99.90
2019-03-08T09:27:26.293Z,99.90
2019-03-08T09:30:14.886Z,99.90
2019-03-08T09:33:01.310Z,99.90
2019-03-08T09:35:37.762Z,99.90
2019-03-08T09:38:08.537Z,99.90
2019-03-08T09:40:47.773Z,99.90
2019-03-08T09:43:18.191Z,99.90
2019-03-08T09:46:04.685Z,99.90
2019-03-08T09:48:48.771Z,99.90
2019-03-08T09:51:21.931Z,99.90
2019-03-08T09:54:04.176Z,99.90
2019-03-08T09:56:49.776Z,99.90
2019-03-08T09:59:32.025Z,99.90
2019-03-08T10:02:05.405Z,99.90
2019-03-08T10:04:35.813Z,99.90
2019-03-08T10:07:09.234Z,99.90
2019-03-08T10:09:39.635Z,99.90
2019-03-08T10:12:13.232Z,99.90
2019-03-08T10:14:46.469Z,99.90
2019-03-08T10:17:16.872Z,99.90
2019-03-08T10:19:50.403Z,99.90
2019-03-08T10:22:23.565Z,99.90
2019-03-08T10:25:09.789Z,99.90
2019-03-08T10:27:40.249Z,99.90
2019-03-08T10:30:18.352Z,99.90
2019-03-08T10:32:48.737Z,99.90
2019-03-08T10:35:23.788Z,99.90
2019-03-08T10:37:51.486Z,99.90
2019-03-08T10:40:36.633Z,99.90
2019-03-08T10:43:10.296Z,99.90
2019-03-08T10:45:52.473Z,99.90
2019-03-08T10:48:25.815Z,99.90
2019-03-08T10:51:05.349Z,99.90
2019-03-08T10:53:45.102Z,99.90
2019-03-08T10:56:18.278Z,99.90
2019-03-08T10:59:04.867Z,99.90
2019-03-08T11:01:38.434Z,99.90
2019-03-08T11:04:08.920Z,99.90
2019-03-08T11:06:39.390Z,99.90
2019-03-08T11:09:12.935Z,99.90
2019-03-08T11:11:43.399Z,99.90
2019-03-08T11:14:29.933Z,99.90
2019-03-08T11:17:12.554Z,99.90
2019-03-08T11:19:59.644Z,99.90
2019-03-08T11:22:30.491Z,99.90
2019-03-08T11:25:07.797Z,99.90
2019-03-08T11:27:44.897Z,99.90
2019-03-08T11:30:18.749Z,99.90
2019-03-08T11:32:52.509Z,99.90
2019-03-08T11:35:23.039Z,99.90
2019-03-08T11:37:53.711Z,99.90
2019-03-08T11:40:27.355Z,99.90
2019-03-08T11:43:06.929Z,99.90
2019-03-08T11:45:37.450Z,99.90
2019-03-08T11:48:08.367Z,99.90
2019-03-08T11:50:51.286Z,99.90
2019-03-08T11:53:39.835Z,99.90
2019-03-08T11:56:10.327Z,99.90
2019-03-08T11:58:41.453Z,99.90
2019-03-08T12:01:21.089Z,99.90
2019-03-08T12:04:07.716Z,99.90
2019-03-08T12:06:44.437Z,99.90
2019-03-08T12:09:15.199Z,99.90
2019-03-08T12:11:46.148Z,99.90
2019-03-08T12:14:23.165Z,99.90
2019-03-08T12:17:03.081Z,99.90
2019-03-08T12:19:51.698Z,99.90
2019-03-08T12:22:37.125Z,99.90
2019-03-08T12:25:08.983Z,99.90
2019-03-08T12:27:39.243Z,99.90
2019-03-08T12:30:28.579Z,99.90
2019-03-08T12:33:14.756Z,99.90
2019-03-08T12:35:50.700Z,99.90
2019-03-08T12:38:20.860Z,99.90
2019-03-08T12:41:03.201Z,99.90
2019-03-08T12:43:50.071Z,99.90
2019-03-08T12:46:22.996Z,99.90
2019-03-08T12:48:56.074Z,99.90
2019-03-08T12:51:31.688Z,99.90
2019-03-08T12:54:19.733Z,99.90
2019-03-08T12:56:53.294Z,99.90
2019-03-08T12:59:39.726Z,99.90
2019-03-08T13:02:15.889Z,99.90
2019-03-08T13:05:02.531Z,99.90
2019-03-08T13:07:44.887Z,99.90
2019-03-08T13:10:13.689Z,99.90
2019-03-08T13:12:42.806Z,99.90
2019-03-08T13:15:14.383Z,99.90
2019-03-08T13:17:43.162Z,99.90
2019-03-08T13:20:17.656Z,99.90
2019-03-08T13:22:46.494Z,99.90
2019-03-08T13:25:15.413Z,99.90
2019-03-08T13:27:44.164Z,99.90
2019-03-08T13:30:16.382Z,99.90
2019-03-08T13:32:45.119Z,99.90
2019-03-08T13:35:14.338Z,99.90
2019-03-08T13:37:43.075Z,99.90
2019-03-08T13:40:14.372Z,99.90
2019-03-08T13:42:43.211Z,99.90
2019-03-08T13:45:14.870Z,99.90
2019-03-08T13:47:43.813Z,99.90
2019-03-08T13:50:14.786Z,99.90
2019-03-08T13:52:43.665Z,99.90
2019-03-08T13:55:15.091Z,99.90
2019-03-08T13:57:43.657Z,99.90
2019-03-08T14:00:16.568Z,99.90
2019-03-08T14:02:45.066Z,99.90
2019-03-08T14:05:13.872Z,99.90
2019-03-08T14:07:42.627Z,99.90
2019-03-08T14:10:20.034Z,99.90
2019-03-08T14:12:48.601Z,99.90
2019-03-08T14:15:18.766Z,99.90
2019-03-08T14:17:47.263Z,99.90
2019-03-08T14:20:18.873Z,96.20
2019-03-08T14:22:47.394Z,95.30
2019-03-08T14:25:15.977Z,94.70
2019-03-08T14:27:44.730Z,94.40
2019-03-08T14:30:19.787Z,99.90
2019-03-08T14:32:48.941Z,99.70
2019-03-08T14:35:17.643Z,99.90
2019-03-08T14:37:46.528Z,99.90
2019-03-08T14:40:20.751Z,99.90
2019-03-08T14:43:02.993Z,99.90
2019-03-08T14:45:33.407Z,99.50
2019-03-08T14:48:02.277Z,98.00
2019-03-08T14:50:31.852Z,94.90
2019-03-08T14:53:01.293Z,91.50
2019-03-08T14:55:30.045Z,89.50
2019-03-08T14:57:58.913Z,89.10
2019-03-08T15:00:29.354Z,89.80
2019-03-08T15:02:58.804Z,84.50
2019-03-08T15:05:27.348Z,82.40
2019-03-08T15:07:55.982Z,79.70
2019-03-08T15:10:24.517Z,80.10
2019-03-08T15:12:53.213Z,81.00
2019-03-08T15:15:21.961Z,80.90
2019-03-08T15:17:53.786Z,80.80
2019-03-08T15:20:20.998Z,81.50
2019-03-08T15:22:50.043Z,81.00
2019-03-08T15:25:18.775Z,80.10
2019-03-08T15:27:47.351Z,81.10
2019-03-08T15:30:19.292Z,82.60
2019-03-08T15:32:47.822Z,83.20
2019-03-08T15:35:17.390Z,84.90
2019-03-08T15:37:46.015Z,85.00
2019-03-08T15:40:21.600Z,89.10
2019-03-08T15:42:50.209Z,88.00
2019-03-08T15:45:18.742Z,87.90
2019-03-08T15:47:47.937Z,86.80
2019-03-08T15:50:20.368Z,86.70
2019-03-08T15:52:49.267Z,85.20
2019-03-08T15:55:19.236Z,87.20
2019-03-08T15:57:47.705Z,85.00
2019-03-08T16:00:21.164Z,85.10
2019-03-08T16:02:50.001Z,85.00
2019-03-08T16:05:19.315Z,85.60
2019-03-08T16:07:48.135Z,87.20
2019-03-08T16:10:21.436Z,88.50
2019-03-08T16:12:50.301Z,90.10
2019-03-08T16:15:19.137Z,91.30
2019-03-08T16:17:47.985Z,91.80
2019-03-08T16:20:19.017Z,92.60
2019-03-08T16:22:47.874Z,94.10
2019-03-08T16:25:17.947Z,95.50
2019-03-08T16:27:46.728Z,96.40
2019-03-08T16:30:23.034Z,97.00
2019-03-08T16:32:59.521Z,98.00
2019-03-08T16:35:30.134Z,99.90
2019-03-08T16:38:18.098Z,99.90
2019-03-08T16:41:04.527Z,99.90
2019-03-08T16:43:37.692Z,99.90
2019-03-08T16:46:10.781Z,99.90
2019-03-08T16:48:44.196Z,99.90
2019-03-08T16:51:13.255Z,99.90
2019-03-08T16:53:43.491Z,99.90
2019-03-08T16:56:17.035Z,99.90
2019-03-08T16:58:56.514Z,99.90
2019-03-08T17:01:43.130Z,99.90
2019-03-08T17:04:22.738Z,99.90
2019-03-08T17:07:04.898Z,99.90
2019-03-08T17:09:42.726Z,99.90
2019-03-08T17:12:13.338Z,99.90
2019-03-08T17:14:43.724Z,99.90
2019-03-08T17:17:17.355Z,99.90
2019-03-08T17:19:50.868Z,99.90
2019-03-08T17:22:27.108Z,99.90
2019-03-08T17:25:03.340Z,99.90
2019-03-08T17:27:49.724Z,99.90
2019-03-08T17:30:35.204Z,99.90
2019-03-08T17:33:06.200Z,99.90
2019-03-08T17:35:36.613Z,99.90
2019-03-08T17:38:09.719Z,99.90
2019-03-08T17:40:57.996Z,99.90
2019-03-08T17:43:28.362Z,99.90
2019-03-08T17:46:01.474Z,99.90
2019-03-08T17:48:40.827Z,99.90
2019-03-08T17:51:23.247Z,99.90
2019-03-08T17:54:09.696Z,99.90
2019-03-08T17:56:43.014Z,99.90
2019-03-08T17:59:28.406Z,99.90
2019-03-08T18:02:14.033Z,99.90
2019-03-08T18:04:50.105Z,99.90
2019-03-08T18:07:32.620Z,99.90
2019-03-08T18:10:03.082Z,99.90
2019-03-08T18:12:36.129Z,99.90
2019-03-08T18:15:11.682Z,99.90
2019-03-08T18:17:48.092Z,99.90
2019-03-08T18:20:30.190Z,99.90
2019-03-08T18:23:00.795Z,99.90
2019-03-08T18:25:42.869Z,99.90
2019-03-08T18:28:19.347Z,99.90
2019-03-08T18:30:59.441Z,99.90
2019-03-08T18:33:41.866Z,99.90
2019-03-08T18:36:12.350Z,99.90
2019-03-08T18:38:58.904Z,99.90
2019-03-08T18:41:32.305Z,99.90
2019-03-08T18:44:08.561Z,99.90
2019-03-08T18:46:54.889Z,99.90
2019-03-08T18:49:27.773Z,99.90
2019-03-08T18:52:15.846Z,99.90
2019-03-08T18:54:57.993Z,99.90
2019-03-08T18:57:28.527Z,99.90
2019-03-08T19:00:18.605Z,99.90
2019-03-08T19:03:05.401Z,99.90
2019-03-08T19:05:36.081Z,99.90
2019-03-08T19:08:22.516Z,99.90
2019-03-08T19:10:58.736Z,99.90
2019-03-08T19:13:29.201Z,99.90
2019-03-08T19:15:59.843Z,99.90
2019-03-08T19:18:33.198Z,99.90
2019-03-08T19:21:08.987Z,99.90
2019-03-08T19:23:45.309Z,99.90
2019-03-08T19:26:31.786Z,99.90
2019-03-08T19:29:02.272Z,99.90
2019-03-08T19:31:35.112Z,99.90
2019-03-08T19:34:11.429Z,99.90
2019-03-08T19:36:50.381Z,99.90
2019-03-08T19:39:27.157Z,99.90
2019-03-08T19:42:03.441Z,99.90
2019-03-08T19:44:33.945Z,99.90
2019-03-08T19:47:16.370Z,99.90
2019-03-08T19:49:47.109Z,99.90
2019-03-08T19:52:26.444Z,99.90
2019-03-08T19:54:56.887Z,99.90
2019-03-08T19:57:39.390Z,99.90
2019-03-08T20:00:30.485Z,99.90
2019-03-08T20:03:12.800Z,99.90
2019-03-08T20:05:49.128Z,99.90
2019-03-08T20:08:19.525Z,99.90
2019-03-08T20:10:53.162Z,99.90
2019-03-08T20:13:32.276Z,99.90
2019-03-08T20:16:08.345Z,99.90
2019-03-08T20:18:39.146Z,99.90
2019-03-08T20:21:24.584Z,99.90
2019-03-08T20:24:04.159Z,99.90
2019-03-08T20:26:49.739Z,99.90
2019-03-08T20:29:32.434Z,99.90
2019-03-08T20:32:08.663Z,99.90
2019-03-08T20:34:45.242Z,99.90
2019-03-08T20:37:16.202Z,99.90
2019-03-08T20:39:57.623Z,99.90
2019-03-08T20:42:40.323Z,99.90
2019-03-08T20:45:20.979Z,99.90
2019-03-08T20:47:50.148Z,99.90
2019-03-08T20:50:18.960Z,99.90
2019-03-08T20:52:47.731Z,99.90
2019-03-08T20:55:16.827Z,99.90
2019-03-08T20:57:45.695Z,99.90
2019-03-08T21:00:17.836Z,99.90
2019-03-08T21:02:47.185Z,99.90
2019-03-08T21:05:16.232Z,99.90
2019-03-08T21:07:45.100Z,99.90
2019-03-08T21:10:15.508Z,99.90
2019-03-08T21:12:44.707Z,99.90
2019-03-08T21:15:14.282Z,99.90
2019-03-08T21:17:43.050Z,99.90
2019-03-08T21:20:13.459Z,99.90
2019-03-08T21:22:42.487Z,99.90
2019-03-08T21:25:13.560Z,99.90
2019-03-08T21:27:42.321Z,99.90
2019-03-08T21:30:21.252Z,99.90
2019-03-08T21:32:49.981Z,99.90
2019-03-08T21:35:18.759Z,99.90
2019-03-08T21:37:47.792Z,99.90
2019-03-08T21:40:16.683Z,99.90
2019-03-08T21:42:45.485Z,99.90
2019-03-08T21:45:15.632Z,99.90
2019-03-08T21:47:44.515Z,99.90
2019-03-08T21:50:15.341Z,99.90
2019-03-08T21:52:44.135Z,99.90
2019-03-08T21:55:13.097Z,99.90
2019-03-08T21:57:42.089Z,99.90
2019-03-08T22:00:13.645Z,99.90
2019-03-08T22:02:42.649Z,99.90
2019-03-08T22:05:11.593Z,99.90
2019-03-08T22:07:40.353Z,99.90
2019-03-08T22:10:18.833Z,99.90
2019-03-08T22:12:47.614Z,99.90
2019-03-08T22:15:16.450Z,99.90
2019-03-08T22:17:45.341Z,99.90
2019-03-08T22:20:14.181Z,99.90
2019-03-08T22:22:43.009Z,99.90
2019-03-08T22:25:11.872Z,99.90
2019-03-08T22:27:40.855Z,99.90
2019-03-08T22:30:15.155Z,99.90
2019-03-08T22:32:43.897Z,99.90
2019-03-08T22:35:12.680Z,99.90
2019-03-08T22:37:41.584Z,99.90
2019-03-08T22:40:10.769Z,99.90
2019-03-08T22:42:40.090Z,99.90
2019-03-08T22:45:10.698Z,99.90
2019-03-08T22:47:39.483Z,99.90
2019-03-08T22:50:13.761Z,99.90
2019-03-08T22:52:42.598Z,99.90
2019-03-08T22:55:13.298Z,99.90
2019-03-08T22:57:42.138Z,99.90
2019-03-08T23:00:14.025Z,99.90
2019-03-08T23:02:42.767Z,99.90
2019-03-08T23:05:11.534Z,99.90
2019-03-08T23:07:40.493Z,99.90
2019-03-08T23:10:11.070Z,99.90
2019-03-08T23:12:40.101Z,99.90
2019-03-08T23:15:09.356Z,99.90
2019-03-08T23:17:38.342Z,99.90
2019-03-08T23:20:08.835Z,99.90
2019-03-08T23:22:37.917Z,99.90
2019-03-08T23:25:07.117Z,99.90
2019-03-08T23:27:37.529Z,99.90
2019-03-08T23:30:09.978Z,99.90
2019-03-08T23:32:39.205Z,99.90
2019-03-08T23:35:08.416Z,99.90
2019-03-08T23:37:37.291Z,99.90
2019-03-08T23:40:07.776Z,99.90
2019-03-08T23:42:36.610Z,99.90
2019-03-08T23:45:07.493Z,99.90
2019-03-08T23:47:36.261Z,99.90
2019-03-08T23:50:07.681Z,99.90
2019-03-08T23:52:36.419Z,99.90
2019-03-08T23:55:08.404Z,99.90
2019-03-08T23:57:37.197Z,99.90
